Time;durP1;ratioP1;P1;durP2;ratioP2;P2;SDS_P1;SDS_P2;PMS_P1;PMS_P2;Temp;Humidity;BMP_temperature;BMP_pressure;BME280_temperature;BME280_humidity;BME280_pressure;Samples;Min_cycle;Max_cycle;Signal;HPM_P1;HPM_P2
2022/05/27 00:01:29;;;;;;;0.20;0.20;;;;;;;;;;5049829;28;20037;-94
2022/05/27 00:03:56;;;;;;;0.10;0.10;;;;;;;;;;5050880;28;20044;-96
2022/05/27 00:06:22;;;;;;;1.17;0.82;;;;;;;;;;5032340;28;20040;-95
2022/05/27 00:08:48;;;;;;;0.10;0.10;;;;;;;;;;5052558;28;20041;-95
2022/05/27 00:11:14;;;;;;;0.10;0.10;;;;;;;;;;5055378;28;20044;-94
2022/05/27 00:13:41;;;;;;;0.10;0.10;;;;;;;;;;5051352;28;20473;-95
2022/05/27 00:16:07;;;;;;;0.10;0.10;;;;;;;;;;5050297;28;20037;-96
2022/05/27 00:18:34;;;;;;;0.08;0.08;;;;;;;;;;5050775;28;20067;-95
2022/05/27 00:21:12;;;;;;;0.10;0.10;;;;;;;;;;5050728;28;20036;-94
2022/05/27 00:23:39;;;;;;;0.10;0.10;;;;;;;;;;5050939;28;20055;-96
2022/05/27 00:26:05;;;;;;;0.10;0.10;;;;;;;;;;5050220;28;20067;-96
2022/05/27 00:28:31;;;;;;;0.10;0.10;;;;;;;;;;5049748;28;20040;-95
2022/05/27 00:30:57;;;;;;;0.10;0.10;;;;;;;;;;5050531;28;20040;-94
2022/05/27 00:33:23;;;;;;;0.10;0.10;;;;;;;;;;5049386;28;20131;-93
2022/05/27 00:35:49;;;;;;;0.10;0.10;;;;;;;;;;5048835;28;20097;-93
2022/05/27 00:38:15;;;;;;;0.10;0.10;;;;;;;;;;5049681;28;20243;-95
2022/05/27 00:40:43;;;;;;;0.30;0.30;;;;;;;;;;5049102;28;20051;-93
2022/05/27 00:43:09;;;;;;;0.00;0.00;;;;;;;;;;5048766;28;20374;-96
2022/05/27 00:45:37;;;;;;;0.20;0.20;;;;;;;;;;5048910;28;20047;-92
2022/05/27 00:48:05;;;;;;;0.10;0.10;;;;;;;;;;5048603;28;20041;-93
2022/05/27 00:50:35;;;;;;;0.20;0.20;;;;;;;;;;5048232;28;20043;-94
2022/05/27 00:53:02;;;;;;;0.00;0.00;;;;;;;;;;5049264;28;20082;-94
2022/05/27 00:55:30;;;;;;;0.10;0.10;;;;;;;;;;5049088;28;20615;-94
2022/05/27 00:58:10;;;;;;;0.08;0.08;;;;;;;;;;5048148;28;20047;-92
2022/05/27 01:00:36;;;;;;;0.10;0.10;;;;;;;;;;5048424;28;20045;-95
2022/05/27 01:03:02;;;;;;;0.10;0.10;;;;;;;;;;5048891;28;20047;-94
2022/05/27 01:05:28;;;;;;;0.20;0.20;;;;;;;;;;5048799;28;20106;-93
2022/05/27 01:07:56;;;;;;;0.10;0.10;;;;;;;;;;5048775;28;20489;-93
2022/05/27 01:10:22;;;;;;;0.15;0.15;;;;;;;;;;5049089;28;20039;-94
2022/05/27 01:13:06;;;;;;;0.25;0.25;;;;;;;;;;5048028;28;20040;-93
2022/05/27 01:15:51;;;;;;;0.10;0.10;;;;;;;;;;5047962;28;20040;-93
2022/05/27 01:20:18;;;;;;;0.10;0.10;;;;;;;;;;5047299;28;20044;-94
2022/05/27 01:21:19;;;;;;;0.20;0.20;;;;;;;;;;5065705;28;20045;-94
2022/05/27 01:23:48;;;;;;;0.10;0.10;;;;;;;;;;5050786;28;20036;-95
2022/05/27 01:26:38;;;;;;;0.10;0.10;;;;;;;;;;5050270;28;20037;-93
2022/05/27 01:29:04;;;;;;;0.10;0.10;;;;;;;;;;5045140;28;20044;-94
2022/05/27 01:31:41;;;;;;;0.10;0.10;;;;;;;;;;5049138;28;20037;-95
2022/05/27 01:34:07;;;;;;;0.03;0.03;;;;;;;;;;5049497;28;20044;-95
2022/05/27 01:36:33;;;;;;;0.10;0.10;;;;;;;;;;5049308;28;20040;-94
2022/05/27 01:39:11;;;;;;;0.30;0.30;;;;;;;;;;5047862;28;20109;-93
2022/05/27 01:41:43;;;;;;;0.10;0.10;;;;;;;;;;5048315;28;20082;-94
2022/05/27 01:44:15;;;;;;;0.10;0.10;;;;;;;;;;5048514;28;20045;-94
2022/05/27 01:46:43;;;;;;;0.00;0.00;;;;;;;;;;5046215;28;20553;-93
2022/05/27 01:49:28;;;;;;;0.10;0.10;;;;;;;;;;5064048;28;20440;-94
2022/05/27 01:52:05;;;;;;;0.17;0.17;;;;;;;;;;5033546;28;20100;-92
2022/05/27 01:54:50;;;;;;;0.10;0.10;;;;;;;;;;5046139;28;20040;-92
2022/05/27 01:57:19;;;;;;;0.10;0.10;;;;;;;;;;5045917;28;20040;-93
2022/05/27 01:59:52;;;;;;;0.10;0.10;;;;;;;;;;5046110;28;20040;-93
2022/05/27 02:02:22;;;;;;;0.10;0.10;;;;;;;;;;5046828;28;20060;-94
2022/05/27 02:04:48;;;;;;;0.10;0.10;;;;;;;;;;5046668;28;20041;-93
2022/05/27 02:07:20;;;;;;;0.28;0.28;;;;;;;;;;5046387;28;20063;-93
2022/05/27 02:09:51;;;;;;;0.10;0.10;;;;;;;;;;5046071;28;20044;-92
2022/05/27 02:12:21;;;;;;;0.10;0.10;;;;;;;;;;5045667;28;20048;-92
2022/05/27 02:14:49;;;;;;;0.00;0.00;;;;;;;;;;5044884;28;20037;-92
2022/05/27 02:17:17;;;;;;;0.10;0.10;;;;;;;;;;5045003;28;20039;-92
2022/05/27 02:19:52;;;;;;;0.10;0.10;;;;;;;;;;5043934;28;20040;-91
2022/05/27 02:22:22;;;;;;;0.10;0.10;;;;;;;;;;5037910;28;20127;-91
2022/05/27 02:24:59;;;;;;;0.10;0.10;;;;;;;;;;5044113;28;20042;-91
2022/05/27 02:27:27;;;;;;;0.15;0.15;;;;;;;;;;5043718;28;20068;-91
2022/05/27 02:29:56;;;;;;;0.10;0.10;;;;;;;;;;5043807;28;20041;-92
2022/05/27 02:32:33;;;;;;;0.25;0.25;;;;;;;;;;5044202;28;20044;-92
2022/05/27 02:35:09;;;;;;;0.10;0.10;;;;;;;;;;5043869;28;20043;-91
2022/05/27 02:37:47;;;;;;;0.00;0.00;;;;;;;;;;5060358;28;20037;-91
2022/05/27 02:40:15;;;;;;;0.10;0.10;;;;;;;;;;5044286;28;20048;-92
2022/05/27 02:42:46;;;;;;;0.20;0.20;;;;;;;;;;5044705;28;20041;-92
2022/05/27 02:45:36;;;;;;;0.08;0.08;;;;;;;;;;5045086;28;20185;-92
2022/05/27 02:48:06;;;;;;;0.00;0.00;;;;;;;;;;5040218;28;20040;-92
2022/05/27 02:50:38;;;;;;;0.03;0.03;;;;;;;;;;5046419;28;20040;-93
2022/05/27 02:53:22;;;;;;;0.00;0.00;;;;;;;;;;5045895;28;20049;-93
2022/05/27 02:55:54;;;;;;;0.10;0.10;;;;;;;;;;5045597;28;20036;-92
2022/05/27 02:58:20;;;;;;;0.10;0.10;;;;;;;;;;5048380;28;20044;-92
2022/05/27 03:00:46;;;;;;;0.20;0.20;;;;;;;;;;5047951;28;20048;-91
2022/05/27 03:03:12;;;;;;;0.10;0.10;;;;;;;;;;5048721;28;20055;-92
2022/05/27 03:05:46;;;;;;;0.13;0.13;;;;;;;;;;5048853;28;20048;-91
2022/05/27 03:08:18;;;;;;;0.20;0.20;;;;;;;;;;5049004;28;20051;-91
2022/05/27 03:11:02;;;;;;;0.20;0.20;;;;;;;;;;5049620;28;20048;-92
2022/05/27 03:13:36;;;;;;;0.10;0.10;;;;;;;;;;5044591;28;20044;-91
2022/05/27 03:16:06;;;;;;;0.15;0.15;;;;;;;;;;5048787;28;20052;-93
2022/05/27 03:18:32;;;;;;;0.20;0.20;;;;;;;;;;5049029;28;20041;-92
2022/05/27 03:21:16;;;;;;;0.08;0.08;;;;;;;;;;5048610;28;20499;-91
2022/05/27 03:24:02;;;;;;;0.10;0.10;;;;;;;;;;5048613;28;20056;-91
2022/05/27 03:26:28;;;;;;;;;;;;;;;;;;5049035;28;20478;-92
2022/05/27 03:28:59;;;;;;;0.10;0.10;;;;;;;;;;5048916;28;19938;-91
2022/05/27 03:31:33;;;;;;;0.20;0.20;;;;;;;;;;5042817;28;20123;-92
2022/05/27 03:34:06;;;;;;;0.10;0.10;;;;;;;;;;5048684;28;20129;-92
2022/05/27 03:36:49;;;;;;;0.15;0.15;;;;;;;;;;5048025;28;20037;-91
2022/05/27 03:39:21;;;;;;;0.10;0.10;;;;;;;;;;5048087;28;20127;-91
2022/05/27 03:41:56;;;;;;;0.15;0.15;;;;;;;;;;5048541;28;20066;-91
2022/05/27 03:44:26;;;;;;;0.10;0.10;;;;;;;;;;5048530;28;20055;-92
2022/05/27 03:46:53;;;;;;;0.10;0.10;;;;;;;;;;5049294;28;20052;-92
2022/05/27 03:49:19;;;;;;;0.20;0.20;;;;;;;;;;5048591;28;20074;-91
2022/05/27 03:51:57;;;;;;;0.20;0.20;;;;;;;;;;5048660;28;20036;-91
2022/05/27 03:54:23;;;;;;;0.10;0.10;;;;;;;;;;5048112;28;20128;-91
2022/05/27 03:56:49;;;;;;;0.17;0.17;;;;;;;;;;5048181;28;20126;-91
2022/05/27 03:59:15;;;;;;;0.10;0.10;;;;;;;;;;5049259;28;20080;-92
2022/05/27 04:01:45;;;;;;;0.13;0.13;;;;;;;;;;5048329;28;20400;-92
2022/05/27 04:04:12;;;;;;;0.10;0.10;;;;;;;;;;5048599;28;20040;-91
2022/05/27 04:06:38;;;;;;;0.17;0.17;;;;;;;;;;5047701;28;20048;-91
2022/05/27 04:09:06;;;;;;;0.10;0.10;;;;;;;;;;5047332;28;20040;-91
2022/05/27 04:11:32;;;;;;;0.03;0.03;;;;;;;;;;5047748;28;20037;-92
2022/05/27 04:13:58;;;;;;;0.10;0.10;;;;;;;;;;5047868;28;20067;-90
2022/05/27 04:16:25;;;;;;;0.10;0.10;;;;;;;;;;5047967;28;20481;-90
2022/05/27 04:18:51;;;;;;;0.10;0.10;;;;;;;;;;5047800;28;20040;-90
2022/05/27 04:21:17;;;;;;;0.00;0.00;;;;;;;;;;5048456;28;20040;-90
2022/05/27 04:23:43;;;;;;;0.10;0.10;;;;;;;;;;5047477;28;20056;-90
2022/05/27 04:26:11;;;;;;;0.10;0.10;;;;;;;;;;5047161;28;20509;-90
2022/05/27 04:28:37;;;;;;;0.00;0.00;;;;;;;;;;5031302;28;20327;-90
2022/05/27 04:31:04;;;;;;;0.10;0.10;;;;;;;;;;5047840;28;20051;-89
2022/05/27 04:33:30;;;;;;;0.15;0.15;;;;;;;;;;5047004;28;20090;-90
2022/05/27 04:35:57;;;;;;;0.15;0.15;;;;;;;;;;5047513;28;20043;-90
2022/05/27 04:38:23;;;;;;;0.20;0.20;;;;;;;;;;5047444;28;20114;-90
2022/05/27 04:40:49;;;;;;;0.10;0.10;;;;;;;;;;5047021;28;20040;-90
2022/05/27 04:43:16;;;;;;;0.20;0.20;;;;;;;;;;5046967;28;20641;-90
2022/05/27 04:45:42;;;;;;;0.10;0.10;;;;;;;;;;5047551;28;20037;-91
2022/05/27 04:48:09;;;;;;;0.10;0.10;;;;;;;;;;5047644;28;20036;-90
2022/05/27 04:50:35;;;;;;;0.10;0.10;;;;;;;;;;5047670;28;20040;-91
2022/05/27 04:53:02;;;;;;;0.10;0.10;;;;;;;;;;5047046;28;20413;-91
2022/05/27 04:55:30;;;;;;;0.13;0.13;;;;;;;;;;5046596;28;20036;-90
2022/05/27 04:57:59;;;;;;;0.10;0.10;;;;;;;;;;5047308;28;20050;-92
2022/05/27 05:00:40;;;;;;;0.20;0.20;;;;;;;;;;5047046;28;20036;-92
2022/05/27 05:03:06;;;;;;;0.10;0.10;;;;;;;;;;5046934;28;20043;-91
2022/05/27 05:05:34;;;;;;;0.10;0.10;;;;;;;;;;5045856;28;20048;-91
2022/05/27 05:08:05;;;;;;;0.10;0.10;;;;;;;;;;5046827;28;20068;-92
2022/05/27 05:10:31;;;;;;;0.08;0.08;;;;;;;;;;5046703;28;20064;-91
2022/05/27 05:12:57;;;;;;;0.10;0.10;;;;;;;;;;5046761;28;20044;-92
2022/05/27 05:15:40;;;;;;;0.10;0.10;;;;;;;;;;5063407;28;20082;-90
2022/05/27 05:18:07;;;;;;;0.10;0.10;;;;;;;;;;5046867;28;20067;-91
2022/05/27 05:20:33;;;;;;;0.10;0.10;;;;;;;;;;5045378;28;20048;-91
2022/05/27 05:22:59;;;;;;;0.10;0.10;;;;;;;;;;5046554;28;20040;-91
2022/05/27 05:25:25;;;;;;;0.10;0.10;;;;;;;;;;5045337;28;20568;-90
2022/05/27 05:27:52;;;;;;;0.10;0.10;;;;;;;;;;5045845;28;20033;-92
2022/05/27 05:30:21;;;;;;;0.10;0.10;;;;;;;;;;5045699;28;20029;-92
2022/05/27 05:32:47;;;;;;;0.10;0.10;;;;;;;;;;5046116;28;20044;-91
2022/05/27 05:35:13;;;;;;;0.00;0.00;;;;;;;;;;5046060;28;20501;-91
2022/05/27 05:37:39;;;;;;;0.10;0.10;;;;;;;;;;5045948;28;20503;-92
2022/05/27 05:40:06;;;;;;;0.05;0.05;;;;;;;;;;5063391;28;20082;-91
2022/05/27 05:42:32;;;;;;;0.10;0.10;;;;;;;;;;5062288;28;20048;-92
2022/05/27 05:44:59;;;;;;;0.10;0.10;;;;;;;;;;5046783;28;20041;-92
2022/05/27 05:47:25;;;;;;;0.10;0.10;;;;;;;;;;5045970;28;20044;-91
2022/05/27 05:49:51;;;;;;;0.10;0.10;;;;;;;;;;5046407;28;20052;-92
2022/05/27 05:52:17;;;;;;;0.00;0.00;;;;;;;;;;5046017;28;20040;-92
2022/05/27 05:54:43;;;;;;;0.10;0.10;;;;;;;;;;5046134;28;20086;-92
2022/05/27 05:57:10;;;;;;;0.00;0.00;;;;;;;;;;5046141;28;20047;-92
2022/05/27 05:59:38;;;;;;;0.00;0.00;;;;;;;;;;5046249;28;20044;-91
2022/05/27 06:02:05;;;;;;;0.15;0.15;;;;;;;;;;5045437;28;20477;-91
2022/05/27 06:04:31;;;;;;;0.10;0.10;;;;;;;;;;5046755;28;20045;-91
2022/05/27 06:06:57;;;;;;;0.10;0.10;;;;;;;;;;5046241;28;20077;-91
2022/05/27 06:09:25;;;;;;;0.00;0.00;;;;;;;;;;5046809;28;20032;-91
2022/05/27 06:11:53;;;;;;;0.10;0.10;;;;;;;;;;5046790;28;20048;-91
2022/05/27 06:14:19;;;;;;;0.10;0.10;;;;;;;;;;5045660;28;20045;-91
2022/05/27 06:16:45;;;;;;;0.10;0.10;;;;;;;;;;5045680;28;20166;-92
2022/05/27 06:19:11;;;;;;;0.10;0.10;;;;;;;;;;5045981;28;20500;-90
2022/05/27 06:21:38;;;;;;;0.20;0.20;;;;;;;;;;5046367;28;20040;-91
2022/05/27 06:24:04;;;;;;;0.10;0.10;;;;;;;;;;5062770;28;20040;-91
2022/05/27 06:26:30;;;;;;;0.10;0.10;;;;;;;;;;5045893;28;20072;-92
2022/05/27 06:34:27;;;;;;;0.00;0.00;;;;;;;;;;5067232;28;20052;-92
2022/05/27 06:37:04;;;;;;;0.10;0.10;;;;;;;;;;5050116;28;20037;-92
2022/05/27 06:39:32;;;;;;;0.10;0.10;;;;;;;;;;5050196;28;20410;-91
2022/05/27 06:41:58;;;;;;;0.10;0.10;;;;;;;;;;5051065;28;20055;-90
2022/05/27 06:44:24;;;;;;;0.20;0.20;;;;;;;;;;5050575;28;20405;-91
2022/05/27 06:46:51;;;;;;;0.00;0.00;;;;;;;;;;5050678;28;20068;-91
2022/05/27 06:49:18;;;;;;;0.10;0.10;;;;;;;;;;5038910;28;20039;-90
2022/05/27 06:51:48;;;;;;;0.00;0.00;;;;;;;;;;5045234;28;20395;-90
2022/05/27 06:54:16;;;;;;;0.10;0.10;;;;;;;;;;5047018;28;20040;-90
2022/05/27 06:56:44;;;;;;;0.10;0.10;;;;;;;;;;5045533;28;20037;-89
2022/05/27 06:59:11;;;;;;;0.10;0.10;;;;;;;;;;5044187;28;20063;-89
2022/05/27 07:01:37;;;;;;;0.10;0.10;;;;;;;;;;5052748;28;20041;-89
2022/05/27 07:04:03;;;;;;;0.00;0.00;;;;;;;;;;5042298;28;20101;-89
2022/05/27 07:06:32;;;;;;;0.10;0.10;;;;;;;;;;5048556;28;20043;-90
2022/05/27 07:08:59;;;;;;;0.10;0.10;;;;;;;;;;5048985;28;20036;-90
2022/05/27 07:11:25;;;;;;;0.20;0.20;;;;;;;;;;5043600;28;20047;-89
2022/05/27 07:13:51;;;;;;;0.20;0.20;;;;;;;;;;5059462;28;20417;-90
2022/05/27 07:16:54;;;;;;;0.10;0.10;;;;;;;;;;5036783;28;20060;-89
2022/05/27 07:19:42;;;;;;;;;;;;;;;;;;;;;
2022/05/27 07:22:26;;;;;;;0.00;0.00;;;;;;;;;;5060862;28;20040;-89
2022/05/27 07:28:19;;;;;;;0.20;0.20;;;;;;;;;;5055090;28;20108;-90
2022/05/27 07:31:06;;;;;;;;;;;;;;;;;;;;;
2022/05/27 07:36:58;;;;;;;0.10;0.10;;;;;;;;;;5050131;28;20040;-90
2022/05/27 07:39:32;;;;;;;0.10;0.10;;;;;;;;;;5044356;28;20496;-90
2022/05/27 07:41:58;;;;;;;0.00;0.00;;;;;;;;;;5041771;28;20051;-90
2022/05/27 07:44:24;;;;;;;0.10;0.10;;;;;;;;;;5039899;28;20102;-90
2022/05/27 07:46:51;;;;;;;0.10;0.10;;;;;;;;;;5039148;28;20059;-88
2022/05/27 07:49:17;;;;;;;0.10;0.10;;;;;;;;;;5036678;28;20312;-88
2022/05/27 07:51:46;;;;;;;0.10;0.10;;;;;;;;;;5040021;28;20417;-89
2022/05/27 07:54:12;;;;;;;0.10;0.10;;;;;;;;;;5039752;28;20032;-90
2022/05/27 07:56:42;;;;;;;0.00;0.00;;;;;;;;;;5040739;28;20060;-89
2022/05/27 07:59:08;;;;;;;0.10;0.10;;;;;;;;;;5041295;28;20062;-90
2022/05/27 08:01:36;;;;;;;0.03;0.03;;;;;;;;;;5039573;28;20494;-89
2022/05/27 08:04:03;;;;;;;0.20;0.20;;;;;;;;;;5040249;28;20032;-89
2022/05/27 08:06:53;;;;;;;0.15;0.15;;;;;;;;;;5042897;28;20040;-89
2022/05/27 08:09:21;;;;;;;0.00;0.00;;;;;;;;;;5034701;28;20047;-89
2022/05/27 08:11:50;;;;;;;0.10;0.10;;;;;;;;;;5037498;28;20052;-88
2022/05/27 08:14:16;;;;;;;0.10;0.10;;;;;;;;;;5038450;28;20049;-89
2022/05/27 08:16:43;;;;;;;0.08;0.08;;;;;;;;;;5036417;28;20076;-88
2022/05/27 08:19:09;;;;;;;0.05;0.05;;;;;;;;;;5040778;28;20060;-89
2022/05/27 08:21:37;;;;;;;0.10;0.10;;;;;;;;;;5041573;28;20032;-89
2022/05/27 08:24:03;;;;;;;0.10;0.10;;;;;;;;;;5038053;28;20036;-88
2022/05/27 08:27:00;;;;;;;0.00;0.00;;;;;;;;;;5040652;28;20062;-89
2022/05/27 08:29:44;;;;;;;0.20;0.20;;;;;;;;;;5058382;28;20071;-89
2022/05/27 08:32:13;;;;;;;0.10;0.10;;;;;;;;;;5037625;28;20051;-90
2022/05/27 08:40:56;;;;;;;0.10;0.10;;;;;;;;;;5078103;28;20120;-89
2022/05/27 08:43:39;;;;;;;0.10;0.10;;;;;;;;;;5043566;28;20123;-89
2022/05/27 08:46:12;;;;;;;0.20;0.20;;;;;;;;;;5039267;28;20490;-89
2022/05/27 08:49:00;;;;;;;0.10;0.10;;;;;;;;;;5039571;28;20072;-89
2022/05/27 08:51:54;;;;;;;0.10;0.10;;;;;;;;;;5036475;28;20044;-88
2022/05/27 08:54:27;;;;;;;0.10;0.10;;;;;;;;;;5035014;28;20037;-90
2022/05/27 09:00:14;;;;;;;0.00;0.00;;;;;;;;;;5060323;28;20044;-89
2022/05/27 09:02:44;;;;;;;0.08;0.08;;;;;;;;;;5035230;28;20124;-88
2022/05/27 09:05:18;;;;;;;0.10;0.10;;;;;;;;;;5038265;28;20044;-88
2022/05/27 09:11:09;;;;;;;;;;;;;;;;;;;;;
2022/05/27 09:13:45;;;;;;;0.10;0.10;;;;;;;;;;5044284;28;20052;-89
2022/05/27 09:16:16;;;;;;;0.10;0.10;;;;;;;;;;5036704;28;20033;-90
2022/05/27 09:19:02;;;;;;;0.00;0.00;;;;;;;;;;5040554;28;20127;-91
2022/05/27 09:24:47;;;;;;;0.10;0.10;;;;;;;;;;5044737;28;20255;-91
2022/05/27 09:27:15;;;;;;;0.10;0.10;;;;;;;;;;5052969;28;20104;-90
2022/05/27 09:29:50;;;;;;;0.10;0.10;;;;;;;;;;5039677;28;20043;-89
2022/05/27 09:32:37;;;;;;;0.00;0.00;;;;;;;;;;5043753;28;20294;-89
2022/05/27 09:35:10;;;;;;;0.20;0.20;;;;;;;;;;5042370;28;20033;-92
2022/05/27 09:37:39;;;;;;;0.10;0.10;;;;;;;;;;5041869;28;20740;-91
2022/05/27 09:40:17;;;;;;;0.10;0.10;;;;;;;;;;5043788;28;20067;-90
2022/05/27 09:42:59;;;;;;;0.10;0.10;;;;;;;;;;5046189;28;20040;-87
2022/05/27 09:45:25;;;;;;;0.00;0.00;;;;;;;;;;5033161;28;20103;-88
2022/05/27 09:47:52;;;;;;;0.10;0.10;;;;;;;;;;5051550;28;20506;-89
2022/05/27 09:50:22;;;;;;;0.00;0.00;;;;;;;;;;5035646;28;20040;-88
2022/05/27 09:52:50;;;;;;;0.10;0.10;;;;;;;;;;5029728;28;20040;-88
2022/05/27 09:55:20;;;;;;;0.05;0.05;;;;;;;;;;5032427;28;20483;-89
2022/05/27 09:57:55;;;;;;;0.10;0.10;;;;;;;;;;5049985;28;20036;-87
2022/05/27 10:00:39;;;;;;;0.10;0.10;;;;;;;;;;5032317;28;20123;-88
2022/05/27 10:03:24;;;;;;;0.00;0.00;;;;;;;;;;5043271;28;20182;-88
2022/05/27 10:05:55;;;;;;;0.08;0.08;;;;;;;;;;5039846;28;20067;-88
2022/05/27 10:08:29;;;;;;;0.05;0.05;;;;;;;;;;5039815;28;20040;-88
2022/05/27 10:11:13;;;;;;;0.08;0.08;;;;;;;;;;5035965;28;20057;-88
2022/05/27 10:13:41;;;;;;;0.10;0.10;;;;;;;;;;5036818;28;20036;-88
2022/05/27 10:16:27;;;;;;;0.13;0.13;;;;;;;;;;5032782;28;20044;-89
2022/05/27 10:19:13;;;;;;;0.10;0.10;;;;;;;;;;5028694;28;20033;-89
2022/05/27 10:21:48;;;;;;;0.10;0.10;;;;;;;;;;5034778;28;20060;-89
2022/05/27 10:24:34;;;;;;;0.00;0.00;;;;;;;;;;5050674;28;20044;-91
2022/05/27 10:27:06;;;;;;;0.00;0.00;;;;;;;;;;5044649;28;20303;-88
2022/05/27 10:29:47;;;;;;;0.10;0.10;;;;;;;;;;5039076;28;20044;-89
2022/05/27 10:32:24;;;;;;;0.00;0.00;;;;;;;;;;5037141;28;20051;-88
2022/05/27 10:34:51;;;;;;;0.20;0.20;;;;;;;;;;5039027;28;20041;-89
2022/05/27 10:37:22;;;;;;;0.00;0.00;;;;;;;;;;5033396;28;20604;-87
2022/05/27 10:39:57;;;;;;;0.10;0.10;;;;;;;;;;5036307;28;20522;-88
2022/05/27 10:42:24;;;;;;;0.17;0.17;;;;;;;;;;5037880;28;20028;-89
2022/05/27 10:44:58;;;;;;;0.00;0.00;;;;;;;;;;5033666;28;20397;-88
2022/05/27 10:47:43;;;;;;;0.00;0.00;;;;;;;;;;5038467;28;20163;-88
2022/05/27 10:50:29;;;;;;;0.05;0.05;;;;;;;;;;5038647;28;20048;-87
2022/05/27 10:53:04;;;;;;;0.00;0.00;;;;;;;;;;5038067;28;20048;-88
2022/05/27 10:55:49;;;;;;;0.20;0.20;;;;;;;;;;5038418;28;20383;-88
2022/05/27 11:04:26;;;;;;;0.08;0.08;;;;;;;;;;5045918;28;20052;-88
2022/05/27 11:07:04;;;;;;;0.20;0.20;;;;;;;;;;5039227;28;20036;-87
2022/05/27 11:09:33;;;;;;;0.08;0.08;;;;;;;;;;5034133;28;20386;-89
2022/05/27 11:12:16;;;;;;;0.10;0.10;;;;;;;;;;5035879;28;20317;-89
2022/05/27 11:15:12;;;;;;;0.10;0.10;;;;;;;;;;5035258;28;20033;-89
2022/05/27 11:17:57;;;;;;;0.10;0.10;;;;;;;;;;5039070;28;20028;-88
2022/05/27 11:20:28;;;;;;;0.00;0.00;;;;;;;;;;5036135;28;20057;-88
2022/05/27 11:23:16;;;;;;;0.20;0.20;;;;;;;;;;5057677;28;20045;-89
2022/05/27 11:25:49;;;;;;;0.10;0.10;;;;;;;;;;5037514;28;20182;-89
2022/05/27 11:28:20;;;;;;;0.00;0.00;;;;;;;;;;5034557;28;20040;-88
2022/05/27 11:30:52;;;;;;;0.00;0.00;;;;;;;;;;5043773;28;20041;-88
2022/05/27 11:33:18;;;;;;;0.10;0.10;;;;;;;;;;5041090;28;20044;-88
2022/05/27 11:35:55;;;;;;;0.10;0.10;;;;;;;;;;5038321;28;20052;-89
2022/05/27 11:38:42;;;;;;;0.00;0.00;;;;;;;;;;5043408;28;20037;-88
2022/05/27 11:41:35;;;;;;;0.20;0.20;;;;;;;;;;5045991;28;20155;-89
2022/05/27 11:44:20;;;;;;;0.00;0.00;;;;;;;;;;5038115;28;20564;-88
2022/05/27 11:47:06;;;;;;;0.03;0.03;;;;;;;;;;5040402;28;20048;-88
2022/05/27 11:49:43;;;;;;;0.10;0.10;;;;;;;;;;5039935;28;20064;-89
2022/05/27 11:52:27;;;;;;;0.10;0.10;;;;;;;;;;5045550;28;20032;-89
2022/05/27 11:55:01;;;;;;;0.00;0.00;;;;;;;;;;5045462;28;20041;-88
2022/05/27 11:57:47;;;;;;;0.08;0.08;;;;;;;;;;5079415;28;20040;-89
2022/05/27 12:00:19;;;;;;;0.10;0.10;;;;;;;;;;5042068;28;20043;-89
2022/05/27 12:02:59;;;;;;;0.10;0.10;;;;;;;;;;5054228;28;20037;-88
2022/05/27 12:05:32;;;;;;;0.10;0.10;;;;;;;;;;5032873;28;20044;-88
2022/05/27 12:08:08;;;;;;;0.10;0.10;;;;;;;;;;5041361;28;20043;-88
2022/05/27 12:10:48;;;;;;;0.10;0.10;;;;;;;;;;5037190;28;20112;-88
2022/05/27 12:13:17;;;;;;;0.10;0.10;;;;;;;;;;5045043;28;20082;-89
2022/05/27 12:15:47;;;;;;;0.00;0.00;;;;;;;;;;5041119;28;20048;-89
2022/05/27 12:18:32;;;;;;;0.10;0.10;;;;;;;;;;5041254;28;20028;-88
2022/05/27 12:20:58;;;;;;;0.00;0.00;;;;;;;;;;5037575;28;20072;-89
2022/05/27 12:23:26;;;;;;;0.10;0.10;;;;;;;;;;5037058;28;20054;-89
2022/05/27 12:25:53;;;;;;;0.00;0.00;;;;;;;;;;5034013;28;20511;-89
2022/05/27 12:28:29;;;;;;;0.10;0.10;;;;;;;;;;5038264;28;20037;-89
2022/05/27 12:30:56;;;;;;;0.10;0.10;;;;;;;;;;5038016;28;20037;-88
2022/05/27 12:33:25;;;;;;;0.03;0.03;;;;;;;;;;5039262;28;20032;-89
2022/05/27 12:36:02;;;;;;;0.10;0.10;;;;;;;;;;5038363;28;20374;-89
2022/05/27 12:38:29;;;;;;;0.00;0.00;;;;;;;;;;5049647;28;20036;-89
2022/05/27 12:40:59;;;;;;;0.10;0.10;;;;;;;;;;5041469;28;20072;-89
2022/05/27 12:43:30;;;;;;;0.10;0.10;;;;;;;;;;5059822;28;20044;-89
2022/05/27 12:46:02;;;;;;;0.10;0.10;;;;;;;;;;5041407;28;20161;-88
2022/05/27 12:48:47;;;;;;;0.00;0.00;;;;;;;;;;5040564;28;20040;-88
2022/05/27 12:51:40;;;;;;;0.00;0.00;;;;;;;;;;5028856;28;20062;-89
2022/05/27 12:54:07;;;;;;;0.10;0.10;;;;;;;;;;5059451;28;20040;-89
2022/05/27 13:02:23;;;;;;;0.20;0.20;;;;;;;;;;5057271;28;20032;-88
2022/05/27 13:04:52;;;;;;;0.00;0.00;;;;;;;;;;5035143;28;20091;-89
2022/05/27 13:07:33;;;;;;;0.00;0.00;;;;;;;;;;5033022;28;20500;-89
2022/05/27 13:10:18;;;;;;;0.00;0.00;;;;;;;;;;5039116;28;20048;-88
2022/05/27 13:12:54;;;;;;;0.10;0.10;;;;;;;;;;5053438;28;20448;-88
2022/05/27 13:15:35;;;;;;;0.10;0.10;;;;;;;;;;5038984;28;20070;-90
2022/05/27 13:18:19;;;;;;;0.03;0.03;;;;;;;;;;5050068;28;20033;-89
2022/05/27 13:20:54;;;;;;;0.00;0.00;;;;;;;;;;5029214;28;20033;-90
2022/05/27 13:23:23;;;;;;;0.05;0.05;;;;;;;;;;5039253;28;20037;-89
2022/05/27 13:26:06;;;;;;;0.10;0.10;;;;;;;;;;5038183;28;20559;-89
2022/05/27 13:28:40;;;;;;;0.10;0.10;;;;;;;;;;5036083;28;20068;-89
2022/05/27 13:31:10;;;;;;;0.10;0.10;;;;;;;;;;5034643;28;20504;-89
2022/05/27 13:33:42;;;;;;;0.00;0.00;;;;;;;;;;5054891;28;20045;-89
2022/05/27 13:36:20;;;;;;;0.10;0.10;;;;;;;;;;5026540;28;20033;-90
2022/05/27 13:38:50;;;;;;;0.00;0.00;;;;;;;;;;5035373;28;20045;-89
2022/05/27 13:41:17;;;;;;;0.00;0.00;;;;;;;;;;5028319;28;20037;-88
2022/05/27 13:43:47;;;;;;;0.03;0.03;;;;;;;;;;5032080;28;20052;-88
2022/05/27 13:46:23;;;;;;;0.10;0.10;;;;;;;;;;5036839;28;20040;-90
2022/05/27 13:48:52;;;;;;;0.10;0.10;;;;;;;;;;5045306;28;20048;-89
2022/05/27 13:51:19;;;;;;;0.10;0.10;;;;;;;;;;5032350;28;20132;-89
2022/05/27 13:53:46;;;;;;;0.03;0.03;;;;;;;;;;5034124;28;20044;-89
2022/05/27 13:56:17;;;;;;;0.10;0.10;;;;;;;;;;5036417;28;20489;-89
2022/05/27 13:58:50;;;;;;;0.03;0.03;;;;;;;;;;5032467;28;20033;-88
2022/05/27 14:01:18;;;;;;;0.08;0.08;;;;;;;;;;5039540;28;20040;-89
2022/05/27 14:03:52;;;;;;;0.10;0.10;;;;;;;;;;5035656;28;20052;-90
2022/05/27 14:06:29;;;;;;;0.05;0.05;;;;;;;;;;5033514;28;20071;-92
2022/05/27 14:08:55;;;;;;;0.13;0.13;;;;;;;;;;5057823;28;20044;-91
2022/05/27 14:11:28;;;;;;;0.05;0.05;;;;;;;;;;5050784;28;20106;-84
2022/05/27 14:13:55;;;;;;;0.00;0.00;;;;;;;;;;5025612;28;20063;-90
2022/05/27 14:16:23;;;;;;;0.10;0.10;;;;;;;;;;5035039;28;20044;-90
2022/05/27 14:18:51;;;;;;;0.10;0.10;;;;;;;;;;5037416;28;20044;-89
2022/05/27 14:24:02;;;;;;;0.00;0.00;;;;;;;;;;5052138;28;20041;-87
2022/05/27 14:26:29;;;;;;;0.00;0.00;;;;;;;;;;5037580;28;20767;-88
2022/05/27 14:28:55;;;;;;;0.10;0.10;;;;;;;;;;5050630;28;20055;-88
2022/05/27 14:31:25;;;;;;;0.00;0.00;;;;;;;;;;5037328;28;20123;-88
2022/05/27 14:33:55;;;;;;;0.10;0.10;;;;;;;;;;5040242;28;20052;-88
2022/05/27 14:36:23;;;;;;;0.10;0.10;;;;;;;;;;5032870;28;20037;-87
2022/05/27 14:38:50;;;;;;;0.10;0.10;;;;;;;;;;5035981;28;20390;-88
2022/05/27 14:41:18;;;;;;;0.00;0.00;;;;;;;;;;5032534;28;20502;-86
2022/05/27 14:43:47;;;;;;;0.10;0.10;;;;;;;;;;5035348;28;20044;-87
2022/05/27 14:46:19;;;;;;;0.10;0.10;;;;;;;;;;5036840;28;20122;-87
2022/05/27 14:48:46;;;;;;;0.00;0.00;;;;;;;;;;5034254;28;20044;-87
2022/05/27 14:51:20;;;;;;;0.10;0.10;;;;;;;;;;5028104;28;20102;-86
2022/05/27 14:53:47;;;;;;;0.10;0.10;;;;;;;;;;5030240;28;20037;-87
2022/05/27 14:56:19;;;;;;;0.00;0.00;;;;;;;;;;5035083;28;20565;-87
2022/05/27 14:58:45;;;;;;;0.10;0.10;;;;;;;;;;5051638;28;20106;-87
2022/05/27 15:01:15;;;;;;;0.10;0.10;;;;;;;;;;5046688;28;20053;-88
2022/05/27 15:03:41;;;;;;;0.10;0.10;;;;;;;;;;5051062;28;20044;-87
2022/05/27 15:06:13;;;;;;;0.10;0.10;;;;;;;;;;5053460;28;20040;-87
2022/05/27 15:08:40;;;;;;;0.08;0.08;;;;;;;;;;5048177;28;20033;-86
2022/05/27 15:11:12;;;;;;;0.00;0.00;;;;;;;;;;5033575;28;20108;-86
2022/05/27 15:13:47;;;;;;;0.00;0.00;;;;;;;;;;5037252;28;20509;-87
2022/05/27 15:16:17;;;;;;;0.08;0.08;;;;;;;;;;5039360;28;20036;-87
2022/05/27 15:18:50;;;;;;;0.10;0.10;;;;;;;;;;5041368;28;20040;-87
2022/05/27 15:21:21;;;;;;;1.23;1.13;;;;;;;;;;5037587;28;20409;-88
2022/05/27 15:23:55;;;;;;;0.00;0.00;;;;;;;;;;5037564;28;20067;-87
2022/05/27 15:34:47;;;;;;;0.00;0.00;;;;;;;;;;5037122;28;20055;-87
2022/05/27 15:37:14;;;;;;;0.10;0.10;;;;;;;;;;5036623;28;20047;-87
2022/05/27 15:39:40;;;;;;;0.17;0.17;;;;;;;;;;5035595;28;20089;-87
2022/05/27 15:42:07;;;;;;;0.00;0.00;;;;;;;;;;5038442;28;20037;-86
2022/05/27 15:44:33;;;;;;;0.10;0.10;;;;;;;;;;5047454;28;20040;-88
2022/05/27 15:46:59;;;;;;;0.20;0.20;;;;;;;;;;5037267;28;20037;-87
2022/05/27 15:49:25;;;;;;;0.00;0.00;;;;;;;;;;5031863;28;20127;-88
2022/05/27 15:51:51;;;;;;;0.20;0.20;;;;;;;;;;5033468;28;20044;-87
2022/05/27 15:54:18;;;;;;;0.00;0.00;;;;;;;;;;5032318;28;20037;-87
2022/05/27 15:56:44;;;;;;;0.17;0.17;;;;;;;;;;5029220;28;20102;-87
2022/05/27 15:59:10;;;;;;;0.10;0.10;;;;;;;;;;5032914;28;20128;-87
2022/05/27 16:01:36;;;;;;;0.10;0.10;;;;;;;;;;5048926;28;20508;-87
2022/05/27 16:04:02;;;;;;;0.10;0.10;;;;;;;;;;5032797;28;20048;-87